Nortelandia, Brazil
Current Conditions -  °F | °C
As of 10:00 AM on Thursday 30 Oct 2014 (Local Time) from SBCY Reporting Station
Broken Clouds Broken Clouds  
Wind Chill: 88°   Ceiling: 10000
Heat Index: 94°   Visibility: 6mi
Dew Point: 72°   Wind: 12mph
Humidity: 58%   Direction: 360°N
Pressure: 29.85"   Gusts: NA
Location:  14.45°S, 56.8°W
Report Text: SBCY 301300Z 36010KT 9999 FEW020 BKN100 31/22 Q1011
Loading
Personal Weather Stations






























Interactive Weather Map
Tropical Storm Tracking
New forecast layout! Learn more

10-Day Weather Forecast

Advertisements
Track Severe Weather on mobile